sensor_id;sensor_type;location;lat;lon;timestamp;pressure;altitude;pressure_sealevel;temperature;humidity
25232;BME280;13176;51.140;6.290;2023-01-27T00:00:27;101514.28;;;6.43;85.83
25232;BME280;13176;51.140;6.290;2023-01-27T00:02:53;101622.38;;;7.02;85.91
25232;BME280;13176;51.140;6.290;2023-01-27T00:05:20;101613.59;;;6.91;85.74
25232;BME280;13176;51.140;6.290;2023-01-27T00:07:47;101492.28;;;6.19;85.74
25232;BME280;13176;51.140;6.290;2023-01-27T00:10:16;101610.22;;;6.98;85.62
25232;BME280;13176;51.140;6.290;2023-01-27T00:12:45;101604.97;;;6.95;85.68
25232;BME280;13176;51.140;6.290;2023-01-27T00:15:31;101619.09;;;7.12;85.40
25232;BME280;13176;51.140;6.290;2023-01-27T00:17:59;101620.91;;;7.19;85.43
25232;BME280;13176;51.140;6.290;2023-01-27T00:20:26;101606.91;;;7.08;85.29
25232;BME280;13176;51.140;6.290;2023-01-27T00:23:19;101622.75;;;7.26;85.29
25232;BME280;13176;51.140;6.290;2023-01-27T00:26:07;101602.66;;;7.13;84.86
25232;BME280;13176;51.140;6.290;2023-01-27T00:28:35;101502.44;;;6.60;84.96
25232;BME280;13176;51.140;6.290;2023-01-27T00:31:03;101568.75;;;7.01;84.61
25232;BME280;13176;51.140;6.290;2023-01-27T00:33:29;101601.72;;;7.08;84.69
25232;BME280;13176;51.140;6.290;2023-01-27T00:36:01;101595.81;;;7.19;84.87
25232;BME280;13176;51.140;6.290;2023-01-27T00:38:29;101587.16;;;7.17;84.68
25232;BME280;13176;51.140;6.290;2023-01-27T00:40:56;101621.16;;;7.37;84.55
25232;BME280;13176;51.140;6.290;2023-01-27T00:43:46;101568.78;;;7.04;84.88
25232;BME280;13176;51.140;6.290;2023-01-27T00:46:13;101555.72;;;6.96;84.77
25232;BME280;13176;51.140;6.290;2023-01-27T00:48:40;101513.94;;;6.77;84.75
25232;BME280;13176;51.140;6.290;2023-01-27T00:51:07;101499.09;;;6.67;84.84
25232;BME280;13176;51.140;6.290;2023-01-27T00:53:33;101503.38;;;6.65;84.61
25232;BME280;13176;51.140;6.290;2023-01-27T00:55:59;101579.41;;;7.19;84.75
25232;BME280;13176;51.140;6.290;2023-01-27T00:58:27;101623.84;;;7.43;85.02
25232;BME280;13176;51.140;6.290;2023-01-27T01:00:54;101478.22;;;6.58;84.65
25232;BME280;13176;51.140;6.290;2023-01-27T01:03:21;101591.56;;;7.23;85.01
25232;BME280;13176;51.140;6.290;2023-01-27T01:05:48;101626.44;;;7.43;85.03
25232;BME280;13176;51.140;6.290;2023-01-27T01:08:15;101597.63;;;7.23;85.29
25232;BME280;13176;51.140;6.290;2023-01-27T01:10:41;101600.31;;;7.31;84.84
25232;BME280;13176;51.140;6.290;2023-01-27T01:13:08;101616.81;;;7.36;84.58
25232;BME280;13176;51.140;6.290;2023-01-27T01:15:38;101535.69;;;6.85;84.50
25232;BME280;13176;51.140;6.290;2023-01-27T01:18:05;101490.47;;;6.68;84.34
25232;BME280;13176;51.140;6.290;2023-01-27T01:20:41;101602.16;;;7.38;83.88
25232;BME280;13176;51.140;6.290;2023-01-27T01:23:08;101528.75;;;6.84;83.94
25232;BME280;13176;51.140;6.290;2023-01-27T01:25:35;101640.47;;;7.54;84.10
25232;BME280;13176;51.140;6.290;2023-01-27T01:28:04;101503.41;;;6.67;83.22
25232;BME280;13176;51.140;6.290;2023-01-27T01:30:33;101638.75;;;7.56;83.46
25232;BME280;13176;51.140;6.290;2023-01-27T01:32:59;101657.56;;;7.40;82.97
25232;BME280;13176;51.140;6.290;2023-01-27T01:35:26;101661.75;;;7.32;83.42
25232;BME280;13176;51.140;6.290;2023-01-27T01:37:53;101582.47;;;6.91;82.77
25232;BME280;13176;51.140;6.290;2023-01-27T01:40:20;101655.19;;;7.55;82.13
25232;BME280;13176;51.140;6.290;2023-01-27T01:42:56;101648.28;;;7.58;82.43
25232;BME280;13176;51.140;6.290;2023-01-27T01:48:05;101601.22;;;7.33;81.79
25232;BME280;13176;51.140;6.290;2023-01-27T01:50:34;101511.41;;;6.80;81.17
25232;BME280;13176;51.140;6.290;2023-01-27T01:53:03;101542.56;;;6.84;81.20
25232;BME280;13176;51.140;6.290;2023-01-27T01:55:32;101629.91;;;7.42;81.32
25232;BME280;13176;51.140;6.290;2023-01-27T01:58:00;101650.66;;;7.42;81.40
25232;BME280;13176;51.140;6.290;2023-01-27T02:00:27;101625.19;;;7.15;82.19
25232;BME280;13176;51.140;6.290;2023-01-27T02:02:54;101642.88;;;7.40;81.82
25232;BME280;13176;51.140;6.290;2023-01-27T02:05:26;101535.78;;;6.91;81.06
25232;BME280;13176;51.140;6.290;2023-01-27T02:07:56;101653.44;;;7.55;81.29
25232;BME280;13176;51.140;6.290;2023-01-27T02:10:23;101638.56;;;7.44;81.39
25232;BME280;13176;51.140;6.290;2023-01-27T02:12:52;101575.72;;;7.05;81.27
25232;BME280;13176;51.140;6.290;2023-01-27T02:15:21;101558.31;;;6.98;81.29
25232;BME280;13176;51.140;6.290;2023-01-27T02:17:47;101659.38;;;7.47;81.60
25232;BME280;13176;51.140;6.290;2023-01-27T02:26:04;101657.72;;;7.52;81.88
25232;BME280;13176;51.140;6.290;2023-01-27T02:28:32;101660.00;;;7.31;82.40
25232;BME280;13176;51.140;6.290;2023-01-27T02:30:59;101514.50;;;6.58;81.52
25232;BME280;13176;51.140;6.290;2023-01-27T02:33:25;101661.19;;;7.51;81.82
25232;BME280;13176;51.140;6.290;2023-01-27T02:38:35;101615.88;;;7.31;81.23
25232;BME280;13176;51.140;6.290;2023-01-27T02:41:08;101528.69;;;6.81;81.18
25232;BME280;13176;51.140;6.290;2023-01-27T02:43:36;101639.25;;;7.29;82.14
25232;BME280;13176;51.140;6.290;2023-01-27T02:46:03;101638.44;;;7.35;81.48
25232;BME280;13176;51.140;6.290;2023-01-27T02:48:29;101654.34;;;7.56;81.27
25232;BME280;13176;51.140;6.290;2023-01-27T02:50:56;101628.19;;;7.44;81.20
25232;BME280;13176;51.140;6.290;2023-01-27T02:53:22;101624.66;;;7.39;80.97
25232;BME280;13176;51.140;6.290;2023-01-27T02:55:49;101570.53;;;7.05;81.18
25232;BME280;13176;51.140;6.290;2023-01-27T02:58:15;101540.91;;;6.88;81.08
25232;BME280;13176;51.140;6.290;2023-01-27T03:00:43;101635.75;;;7.27;82.01
25232;BME280;13176;51.140;6.290;2023-01-27T03:03:09;101633.25;;;7.35;81.21
25232;BME280;13176;51.140;6.290;2023-01-27T03:05:36;101496.84;;;6.33;82.69
25232;BME280;13176;51.140;6.290;2023-01-27T03:08:02;101639.88;;;7.15;82.13
25232;BME280;13176;51.140;6.290;2023-01-27T03:10:28;101575.72;;;7.05;80.77
25232;BME280;13176;51.140;6.290;2023-01-27T03:12:55;101657.59;;;7.43;81.01
25232;BME280;13176;51.140;6.290;2023-01-27T03:15:21;101584.34;;;7.02;81.01
25232;BME280;13176;51.140;6.290;2023-01-27T03:18:09;101608.59;;;7.06;81.18
25232;BME280;13176;51.140;6.290;2023-01-27T03:20:39;101665.44;;;7.44;81.31
25232;BME280;13176;51.140;6.290;2023-01-27T03:23:06;101683.50;;;7.40;81.19
25232;BME280;13176;51.140;6.290;2023-01-27T03:25:33;101571.94;;;6.83;81.83
25232;BME280;13176;51.140;6.290;2023-01-27T03:28:00;101647.03;;;7.31;81.32
25232;BME280;13176;51.140;6.290;2023-01-27T03:30:27;101682.00;;;7.54;80.94
25232;BME280;13176;51.140;6.290;2023-01-27T03:32:54;101602.31;;;6.92;80.98
25232;BME280;13176;51.140;6.290;2023-01-27T03:35:23;101586.59;;;6.81;80.58
25232;BME280;13176;51.140;6.290;2023-01-27T03:38:00;101656.59;;;7.33;80.68
25232;BME280;13176;51.140;6.290;2023-01-27T03:40:44;101667.88;;;7.35;81.01
25232;BME280;13176;51.140;6.290;2023-01-27T03:43:29;101643.22;;;7.08;81.31
25232;BME280;13176;51.140;6.290;2023-01-27T03:46:14;101665.47;;;6.94;81.06
25232;BME280;13176;51.140;6.290;2023-01-27T03:48:47;101679.84;;;7.26;80.37
25232;BME280;13176;51.140;6.290;2023-01-27T03:51:15;101702.94;;;7.09;80.90
25232;BME280;13176;51.140;6.290;2023-01-27T03:53:42;101565.44;;;6.53;80.10
25232;BME280;13176;51.140;6.290;2023-01-27T03:56:09;101684.84;;;7.14;80.50
25232;BME280;13176;51.140;6.290;2023-01-27T03:58:36;101583.53;;;6.50;80.78
25232;BME280;13176;51.140;6.290;2023-01-27T04:01:05;101723.03;;;7.21;81.39
25232;BME280;13176;51.140;6.290;2023-01-27T04:03:33;101725.94;;;7.40;80.45
25232;BME280;13176;51.140;6.290;2023-01-27T04:06:25;101653.28;;;6.87;80.59
25232;BME280;13176;51.140;6.290;2023-01-27T04:09:12;101740.34;;;7.22;80.48
25232;BME280;13176;51.140;6.290;2023-01-27T04:11:38;101710.47;;;6.96;80.78
25232;BME280;13176;51.140;6.290;2023-01-27T04:14:39;101696.59;;;6.94;80.51
25232;BME280;13176;51.140;6.290;2023-01-27T04:17:10;101555.00;;;6.01;80.69
25232;BME280;13176;51.140;6.290;2023-01-27T04:19:37;101622.47;;;6.56;79.71
25232;BME280;13176;51.140;6.290;2023-01-27T04:22:05;101721.97;;;7.10;79.56
25232;BME280;13176;51.140;6.290;2023-01-27T04:24:32;101713.13;;;6.99;79.28
25232;BME280;13176;51.140;6.290;2023-01-27T04:27:01;101600.25;;;6.21;79.44
25232;BME280;13176;51.140;6.290;2023-01-27T04:29:31;101712.28;;;7.00;78.90
25232;BME280;13176;51.140;6.290;2023-01-27T04:31:58;101624.72;;;6.35;79.30
25232;BME280;13176;51.140;6.290;2023-01-27T04:34:25;101738.44;;;7.12;78.84
25232;BME280;13176;51.140;6.290;2023-01-27T04:36:53;101604.72;;;6.28;79.07
25232;BME280;13176;51.140;6.290;2023-01-27T04:39:20;101733.75;;;6.93;78.73
25232;BME280;13176;51.140;6.290;2023-01-27T04:41:47;101714.75;;;6.91;79.00
25232;BME280;13176;51.140;6.290;2023-01-27T04:44:14;101699.84;;;6.81;78.47
25232;BME280;13176;51.140;6.290;2023-01-27T04:46:41;101626.41;;;6.33;78.30
25232;BME280;13176;51.140;6.290;2023-01-27T04:49:07;101607.97;;;6.17;79.15
25232;BME280;13176;51.140;6.290;2023-01-27T04:51:34;101754.72;;;7.03;79.24
25232;BME280;13176;51.140;6.290;2023-01-27T04:54:00;101689.16;;;6.63;79.60
25232;BME280;13176;51.140;6.290;2023-01-27T04:56:34;101604.03;;;5.92;80.02
25232;BME280;13176;51.140;6.290;2023-01-27T04:59:03;101725.69;;;6.75;80.34
25232;BME280;13176;51.140;6.290;2023-01-27T05:01:31;101732.84;;;6.88;79.93
25232;BME280;13176;51.140;6.290;2023-01-27T05:03:57;101604.47;;;6.15;79.63
25232;BME280;13176;51.140;6.290;2023-01-27T05:06:25;101735.16;;;6.74;80.39
25232;BME280;13176;51.140;6.290;2023-01-27T05:08:52;101756.28;;;6.48;83.39
25232;BME280;13176;51.140;6.290;2023-01-27T05:11:19;101752.75;;;6.89;81.32
25232;BME280;13176;51.140;6.290;2023-01-27T05:13:45;101648.50;;;6.13;81.53
25232;BME280;13176;51.140;6.290;2023-01-27T05:16:20;101709.81;;;6.60;82.04
25232;BME280;13176;51.140;6.290;2023-01-27T05:18:48;101708.19;;;6.65;81.63
25232;BME280;13176;51.140;6.290;2023-01-27T05:21:18;101744.19;;;6.94;80.97
25232;BME280;13176;51.140;6.290;2023-01-27T05:23:45;101707.28;;;6.63;81.61
25232;BME280;13176;51.140;6.290;2023-01-27T05:26:12;101713.38;;;6.65;81.30
25232;BME280;13176;51.140;6.290;2023-01-27T05:28:43;101760.41;;;6.83;81.64
25232;BME280;13176;51.140;6.290;2023-01-27T05:31:21;101713.00;;;6.44;81.47
25232;BME280;13176;51.140;6.290;2023-01-27T05:33:50;101726.09;;;6.50;81.61
25232;BME280;13176;51.140;6.290;2023-01-27T05:36:19;101755.78;;;6.67;81.54
25232;BME280;13176;51.140;6.290;2023-01-27T05:38:46;101633.56;;;6.02;81.61
25232;BME280;13176;51.140;6.290;2023-01-27T05:41:13;101734.97;;;6.64;81.88
25232;BME280;13176;51.140;6.290;2023-01-27T05:43:41;101720.13;;;6.54;81.66
25232;BME280;13176;51.140;6.290;2023-01-27T05:46:10;101768.97;;;6.79;81.13
25232;BME280;13176;51.140;6.290;2023-01-27T05:48:40;101762.72;;;6.68;81.58
25232;BME280;13176;51.140;6.290;2023-01-27T05:51:08;101721.31;;;6.28;81.62
25232;BME280;13176;51.140;6.290;2023-01-27T05:53:40;101701.97;;;6.11;81.97
25232;BME280;13176;51.140;6.290;2023-01-27T05:56:08;101650.25;;;5.74;82.29
25232;BME280;13176;51.140;6.290;2023-01-27T05:58:36;101757.91;;;6.43;82.24
25232;BME280;13176;51.140;6.290;2023-01-27T06:01:11;101763.16;;;6.46;82.35
25232;BME280;13176;51.140;6.290;2023-01-27T06:03:39;101731.81;;;6.34;82.12
25232;BME280;13176;51.140;6.290;2023-01-27T06:06:06;101772.94;;;6.61;82.50
25232;BME280;13176;51.140;6.290;2023-01-27T06:08:33;101757.13;;;6.49;82.87
25232;BME280;13176;51.140;6.290;2023-01-27T06:11:00;101725.66;;;6.29;82.75
25232;BME280;13176;51.140;6.290;2023-01-27T06:13:27;101766.72;;;6.51;82.98
25232;BME280;13176;51.140;6.290;2023-01-27T06:15:53;101635.56;;;5.73;83.13
25232;BME280;13176;51.140;6.290;2023-01-27T06:18:22;101723.31;;;6.41;83.15
25232;BME280;13176;51.140;6.290;2023-01-27T06:20:49;101764.41;;;6.66;83.14
25232;BME280;13176;51.140;6.290;2023-01-27T06:23:16;101668.13;;;6.04;82.92
25232;BME280;13176;51.140;6.290;2023-01-27T06:25:45;101661.97;;;5.97;83.29
25232;BME280;13176;51.140;6.290;2023-01-27T06:28:12;101784.59;;;6.82;83.24
25232;BME280;13176;51.140;6.290;2023-01-27T06:30:54;101761.75;;;6.63;83.96
25232;BME280;13176;51.140;6.290;2023-01-27T06:33:21;101778.53;;;6.81;83.74
25232;BME280;13176;51.140;6.290;2023-01-27T06:35:47;101614.19;;;5.83;83.77
25232;BME280;13176;51.140;6.290;2023-01-27T06:38:13;101600.31;;;5.78;83.01
25232;BME280;13176;51.140;6.290;2023-01-27T06:40:41;101766.25;;;6.72;84.12
25232;BME280;13176;51.140;6.290;2023-01-27T06:43:13;101669.88;;;6.03;83.79
25232;BME280;13176;51.140;6.290;2023-01-27T06:45:39;101634.13;;;5.87;84.10
25232;BME280;13176;51.140;6.290;2023-01-27T06:48:06;101605.34;;;5.74;84.44
25232;BME280;13176;51.140;6.290;2023-01-27T06:50:34;101664.03;;;6.13;84.20
25232;BME280;13176;51.140;6.290;2023-01-27T06:53:04;101628.78;;;5.78;84.68
25232;BME280;13176;51.140;6.290;2023-01-27T06:55:31;101698.78;;;6.24;83.78
25232;BME280;13176;51.140;6.290;2023-01-27T06:58:00;101742.47;;;6.49;83.75
25232;BME280;13176;51.140;6.290;2023-01-27T07:00:26;101703.94;;;6.24;83.74
25232;BME280;13176;51.140;6.290;2023-01-27T07:02:56;101672.91;;;6.27;83.07
25232;BME280;13176;51.140;6.290;2023-01-27T07:05:23;101807.47;;;7.02;83.49
25232;BME280;13176;51.140;6.290;2023-01-27T07:07:49;101678.72;;;6.14;83.22
25232;BME280;13176;51.140;6.290;2023-01-27T07:10:18;101686.59;;;6.20;83.08
25232;BME280;13176;51.140;6.290;2023-01-27T07:12:44;101753.88;;;6.59;83.18
25232;BME280;13176;51.140;6.290;2023-01-27T07:15:11;101709.44;;;6.39;83.21
25232;BME280;13176;51.140;6.290;2023-01-27T07:17:38;101794.84;;;6.76;83.62
25232;BME280;13176;51.140;6.290;2023-01-27T07:20:06;101786.16;;;6.74;83.86
25232;BME280;13176;51.140;6.290;2023-01-27T07:22:33;101714.50;;;6.33;83.54
25232;BME280;13176;51.140;6.290;2023-01-27T07:25:00;101708.34;;;6.28;83.31
25232;BME280;13176;51.140;6.290;2023-01-27T07:27:26;101731.16;;;6.46;83.47
25232;BME280;13176;51.140;6.290;2023-01-27T07:29:53;101772.09;;;6.62;84.13
25232;BME280;13176;51.140;6.290;2023-01-27T07:32:19;101690.28;;;6.31;83.91
25232;BME280;13176;51.140;6.290;2023-01-27T07:34:46;101740.78;;;6.51;83.62
25232;BME280;13176;51.140;6.290;2023-01-27T07:37:13;101702.09;;;6.17;83.81
25232;BME280;13176;51.140;6.290;2023-01-27T07:39:40;101716.06;;;6.25;83.92
25232;BME280;13176;51.140;6.290;2023-01-27T07:42:07;101681.19;;;6.08;83.62
25232;BME280;13176;51.140;6.290;2023-01-27T07:44:34;101822.72;;;6.86;84.09
25232;BME280;13176;51.140;6.290;2023-01-27T07:47:01;101770.41;;;6.65;83.56
25232;BME280;13176;51.140;6.290;2023-01-27T07:49:27;101717.34;;;6.47;82.62
25232;BME280;13176;51.140;6.290;2023-01-27T07:51:53;101726.16;;;6.53;82.47
25232;BME280;13176;51.140;6.290;2023-01-27T07:54:20;101780.19;;;6.78;82.66
25232;BME280;13176;51.140;6.290;2023-01-27T07:56:46;101631.47;;;5.83;82.96
25232;BME280;13176;51.140;6.290;2023-01-27T07:59:13;101784.47;;;6.76;82.60
25232;BME280;13176;51.140;6.290;2023-01-27T08:01:40;101670.13;;;5.75;83.60
25232;BME280;13176;51.140;6.290;2023-01-27T08:04:07;101754.69;;;6.56;82.94
25232;BME280;13176;51.140;6.290;2023-01-27T08:06:33;101717.09;;;6.32;82.51
25232;BME280;13176;51.140;6.290;2023-01-27T08:09:00;101728.44;;;6.38;83.28
25232;BME280;13176;51.140;6.290;2023-01-27T08:11:26;101704.50;;;6.51;81.44
25232;BME280;13176;51.140;6.290;2023-01-27T08:13:53;101695.63;;;6.40;81.40
25232;BME280;13176;51.140;6.290;2023-01-27T08:16:19;101694.44;;;6.23;82.29
25232;BME280;13176;51.140;6.290;2023-01-27T08:18:45;101690.16;;;6.25;82.60
25232;BME280;13176;51.140;6.290;2023-01-27T08:21:12;101718.97;;;6.40;83.11
25232;BME280;13176;51.140;6.290;2023-01-27T08:23:39;101746.06;;;6.56;82.63
25232;BME280;13176;51.140;6.290;2023-01-27T08:26:06;101838.13;;;7.24;83.41
25232;BME280;13176;51.140;6.290;2023-01-27T08:28:34;101846.03;;;7.32;83.03
25232;BME280;13176;51.140;6.290;2023-01-27T08:31:15;101834.97;;;7.40;82.48
25232;BME280;13176;51.140;6.290;2023-01-27T08:33:43;101829.25;;;7.13;83.35
25232;BME280;13176;51.140;6.290;2023-01-27T08:36:13;101664.47;;;6.37;82.82
25232;BME280;13176;51.140;6.290;2023-01-27T08:38:41;101661.09;;;6.41;81.77
25232;BME280;13176;51.140;6.290;2023-01-27T08:41:13;101844.72;;;7.55;81.61
25232;BME280;13176;51.140;6.290;2023-01-27T08:43:40;101762.47;;;7.00;82.04
25232;BME280;13176;51.140;6.290;2023-01-27T08:46:07;101693.34;;;6.57;82.01
25232;BME280;13176;51.140;6.290;2023-01-27T08:48:35;101711.94;;;6.80;81.31
25232;BME280;13176;51.140;6.290;2023-01-27T08:51:03;101830.00;;;7.55;81.91
25232;BME280;13176;51.140;6.290;2023-01-27T08:53:31;101765.31;;;6.68;82.93
25232;BME280;13176;51.140;6.290;2023-01-27T08:56:02;101707.22;;;6.59;82.76
25232;BME280;13176;51.140;6.290;2023-01-27T08:58:30;101736.34;;;6.90;81.89
25232;BME280;13176;51.140;6.290;2023-01-27T09:00:59;101852.69;;;7.65;81.72
25232;BME280;13176;51.140;6.290;2023-01-27T09:03:30;101694.34;;;6.63;82.64
25232;BME280;13176;51.140;6.290;2023-01-27T09:05:56;101730.34;;;6.48;82.69
25232;BME280;13176;51.140;6.290;2023-01-27T09:08:24;101842.88;;;7.48;82.40
25232;BME280;13176;51.140;6.290;2023-01-27T09:10:51;101769.34;;;7.00;82.06
25232;BME280;13176;51.140;6.290;2023-01-27T09:13:18;101856.94;;;7.59;82.17
25232;BME280;13176;51.140;6.290;2023-01-27T09:15:53;101760.59;;;6.95;81.78
25232;BME280;13176;51.140;6.290;2023-01-27T09:18:20;101746.78;;;6.96;82.01
25232;BME280;13176;51.140;6.290;2023-01-27T09:20:46;101776.22;;;6.98;81.73
25232;BME280;13176;51.140;6.290;2023-01-27T09:23:13;101718.91;;;6.83;81.82
25232;BME280;13176;51.140;6.290;2023-01-27T09:25:39;101830.78;;;7.50;81.11
25232;BME280;13176;51.140;6.290;2023-01-27T09:28:06;101776.69;;;7.22;81.59
25232;BME280;13176;51.140;6.290;2023-01-27T09:30:43;101745.22;;;7.04;81.29
25232;BME280;13176;51.140;6.290;2023-01-27T09:33:12;101742.59;;;7.02;81.65
25232;BME280;13176;51.140;6.290;2023-01-27T09:35:47;101731.28;;;6.99;80.58
25232;BME280;13176;51.140;6.290;2023-01-27T09:38:17;101885.91;;;7.84;80.91
25232;BME280;13176;51.140;6.290;2023-01-27T09:43:41;101855.75;;;7.42;81.59
25232;BME280;13176;51.140;6.290;2023-01-27T09:58:06;101904.22;;;7.91;80.82
25232;BME280;13176;51.140;6.290;2023-01-27T10:00:51;101891.81;;;7.76;82.00
25232;BME280;13176;51.140;6.290;2023-01-27T10:06:40;101899.31;;;8.08;80.11
25232;BME280;13176;51.140;6.290;2023-01-27T10:12:03;101839.53;;;7.55;81.24
25232;BME280;13176;51.140;6.290;2023-01-27T10:17:50;101857.50;;;7.94;79.93
25232;BME280;13176;51.140;6.290;2023-01-27T10:20:26;101809.91;;;7.44;80.72
25232;BME280;13176;51.140;6.290;2023-01-27T10:28:50;101816.69;;;7.36;80.91
25232;BME280;13176;51.140;6.290;2023-01-27T10:31:25;101752.38;;;7.17;80.75
25232;BME280;13176;51.140;6.290;2023-01-27T10:33:56;101854.91;;;7.96;79.99
25232;BME280;13176;51.140;6.290;2023-01-27T10:36:58;101900.31;;;8.16;80.47
25232;BME280;13176;51.140;6.290;2023-01-27T10:45:18;101821.88;;;7.88;79.79
25232;BME280;13176;51.140;6.290;2023-01-27T10:48:08;101844.06;;;8.19;79.40
25232;BME280;13176;51.140;6.290;2023-01-27T10:50:48;101768.78;;;7.71;79.47
25232;BME280;13176;51.140;6.290;2023-01-27T10:53:26;101899.06;;;8.49;78.85
25232;BME280;13176;51.140;6.290;2023-01-27T10:58:44;101776.41;;;7.59;79.87
25232;BME280;13176;51.140;6.290;2023-01-27T11:01:27;101757.19;;;7.46;79.39
25232;BME280;13176;51.140;6.290;2023-01-27T11:04:01;101880.72;;;8.37;79.68
25232;BME280;13176;51.140;6.290;2023-01-27T11:06:36;101782.78;;;7.77;80.04
25232;BME280;13176;51.140;6.290;2023-01-27T11:09:16;101882.75;;;8.59;78.79
25232;BME280;13176;51.140;6.290;2023-01-27T11:11:50;101784.06;;;8.06;77.88
25232;BME280;13176;51.140;6.290;2023-01-27T11:14:27;101870.69;;;8.64;78.70
25232;BME280;13176;51.140;6.290;2023-01-27T11:17:22;101885.47;;;8.70;78.38
25232;BME280;13176;51.140;6.290;2023-01-27T11:20:29;101882.47;;;8.41;79.30
25232;BME280;13176;51.140;6.290;2023-01-27T11:23:29;101875.53;;;8.40;79.19
25232;BME280;13176;51.140;6.290;2023-01-27T11:35:11;101876.00;;;8.76;77.41
25232;BME280;13176;51.140;6.290;2023-01-27T11:37:43;101774.59;;;8.12;77.54
25232;BME280;13176;51.140;6.290;2023-01-27T11:40:23;101752.91;;;8.09;77.44
25232;BME280;13176;51.140;6.290;2023-01-27T11:42:52;101789.41;;;8.16;77.29
25232;BME280;13176;51.140;6.290;2023-01-27T11:45:20;101770.22;;;8.07;77.51
25232;BME280;13176;51.140;6.290;2023-01-27T11:47:50;101767.66;;;8.11;77.87
25232;BME280;13176;51.140;6.290;2023-01-27T11:50:19;101792.91;;;8.18;77.28
25232;BME280;13176;51.140;6.290;2023-01-27T11:52:49;101855.81;;;8.54;77.61
25232;BME280;13176;51.140;6.290;2023-01-27T11:55:19;101832.94;;;8.29;77.86
25232;BME280;13176;51.140;6.290;2023-01-27T11:57:52;101855.59;;;8.39;78.15
25232;BME280;13176;51.140;6.290;2023-01-27T12:00:24;101875.84;;;8.61;78.22
25232;BME280;13176;51.140;6.290;2023-01-27T12:03:00;101865.53;;;8.67;78.08
25232;BME280;13176;51.140;6.290;2023-01-27T12:05:33;101790.25;;;8.15;78.42
25232;BME280;13176;51.140;6.290;2023-01-27T12:08:01;101754.47;;;7.96;77.69
25232;BME280;13176;51.140;6.290;2023-01-27T12:10:40;101853.31;;;8.63;77.65
25232;BME280;13176;51.140;6.290;2023-01-27T12:13:18;101862.06;;;8.68;78.09
25232;BME280;13176;51.140;6.290;2023-01-27T12:15:52;101752.69;;;7.94;77.69
25232;BME280;13176;51.140;6.290;2023-01-27T12:18:20;101685.50;;;7.56;77.48
25232;BME280;13176;51.140;6.290;2023-01-27T12:20:57;101723.22;;;7.92;77.45
25232;BME280;13176;51.140;6.290;2023-01-27T12:23:31;101813.13;;;8.40;77.59
25232;BME280;13176;51.140;6.290;2023-01-27T12:26:07;101816.50;;;8.30;78.22
25232;BME280;13176;51.140;6.290;2023-01-27T12:28:37;101755.38;;;8.01;77.53
25232;BME280;13176;51.140;6.290;2023-01-27T12:31:32;101793.66;;;8.11;77.89
25232;BME280;13176;51.140;6.290;2023-01-27T12:36:43;101797.47;;;8.34;77.92
25232;BME280;13176;51.140;6.290;2023-01-27T12:42:36;101701.44;;;7.81;77.96
25232;BME280;13176;51.140;6.290;2023-01-27T12:45:23;101837.84;;;8.72;77.57
25232;BME280;13176;51.140;6.290;2023-01-27T12:50:29;101840.25;;;8.59;77.93
25232;BME280;13176;51.140;6.290;2023-01-27T12:53:10;101837.69;;;8.60;78.15
25232;BME280;13176;51.140;6.290;2023-01-27T13:00:49;101818.44;;;8.49;77.49
25232;BME280;13176;51.140;6.290;2023-01-27T13:03:17;101741.25;;;7.82;77.95
25232;BME280;13176;51.140;6.290;2023-01-27T13:05:46;101728.22;;;7.77;78.33
25232;BME280;13176;51.140;6.290;2023-01-27T13:08:17;101659.44;;;7.51;77.29
25232;BME280;13176;51.140;6.290;2023-01-27T13:10:49;101678.66;;;7.61;77.29
25232;BME280;13176;51.140;6.290;2023-01-27T13:13:23;101820.91;;;8.37;77.62
25232;BME280;13176;51.140;6.290;2023-01-27T13:15:52;101829.63;;;8.42;77.24
25232;BME280;13176;51.140;6.290;2023-01-27T13:18:28;101594.47;;;6.86;77.03
25232;BME280;13176;51.140;6.290;2023-01-27T13:21:06;101854.59;;;8.28;78.27
25232;BME280;13176;51.140;6.290;2023-01-27T13:23:36;101764.78;;;7.92;77.06
25232;BME280;13176;51.140;6.290;2023-01-27T13:26:11;101755.38;;;7.98;76.87
25232;BME280;13176;51.140;6.290;2023-01-27T13:28:54;101620.22;;;7.30;76.50
25232;BME280;13176;51.140;6.290;2023-01-27T13:42:35;101849.78;;;8.58;75.43
25232;BME280;13176;51.140;6.290;2023-01-27T13:48:29;101783.06;;;7.96;76.50
25232;BME280;13176;51.140;6.290;2023-01-27T13:51:29;101808.09;;;7.93;76.76
25232;BME280;13176;51.140;6.290;2023-01-27T13:54:01;101827.66;;;8.25;75.24
25232;BME280;13176;51.140;6.290;2023-01-27T14:02:28;101861.72;;;8.44;75.27
25232;BME280;13176;51.140;6.290;2023-01-27T14:05:14;101875.72;;;8.52;75.20
25232;BME280;13176;51.140;6.290;2023-01-27T14:13:27;101870.56;;;8.55;74.94
25232;BME280;13176;51.140;6.290;2023-01-27T14:19:26;101873.16;;;8.54;75.21
25232;BME280;13176;51.140;6.290;2023-01-27T14:22:03;101754.00;;;7.65;74.94
25232;BME280;13176;51.140;6.290;2023-01-27T14:27:07;101736.03;;;7.79;74.46
25232;BME280;13176;51.140;6.290;2023-01-27T14:32:42;101878.53;;;8.67;74.53
25232;BME280;13176;51.140;6.290;2023-01-27T14:35:41;101872.13;;;8.44;74.50
25232;BME280;13176;51.140;6.290;2023-01-27T14:38:31;101816.13;;;8.09;74.42
25232;BME280;13176;51.140;6.290;2023-01-27T14:44:51;101873.16;;;8.54;73.76
25232;BME280;13176;51.140;6.290;2023-01-27T14:47:23;101865.25;;;8.49;73.27
25232;BME280;13176;51.140;6.290;2023-01-27T14:50:13;101885.31;;;8.58;73.73
25232;BME280;13176;51.140;6.290;2023-01-27T15:01:12;101888.72;;;8.51;74.00
25232;BME280;13176;51.140;6.290;2023-01-27T15:03:50;101868.63;;;8.42;73.44
25232;BME280;13176;51.140;6.290;2023-01-27T15:12:14;101901.53;;;8.40;72.96
25232;BME280;13176;51.140;6.290;2023-01-27T15:17:52;101904.47;;;8.61;72.26
25232;BME280;13176;51.140;6.290;2023-01-27T15:20:47;101847.53;;;8.21;72.54
25232;BME280;13176;51.140;6.290;2023-01-27T15:23:43;101872.03;;;8.38;72.44
25232;BME280;13176;51.140;6.290;2023-01-27T15:26:17;101890.41;;;8.50;72.38
25232;BME280;13176;51.140;6.290;2023-01-27T15:28:46;101743.66;;;7.70;72.08